createdAt,value
2019-06-20T00:00:15.992Z,18.70
2019-06-20T00:02:45.904Z,18.60
2019-06-20T00:05:15.884Z,18.60
2019-06-20T00:07:45.673Z,18.60
2019-06-20T00:10:15.726Z,18.60
2019-06-20T00:12:59.501Z,18.60
2019-06-20T00:15:16.982Z,18.60
2019-06-20T00:17:46.876Z,18.60
2019-06-20T00:20:16.909Z,18.60
2019-06-20T00:22:46.856Z,18.60
2019-06-20T00:25:16.773Z,18.60
2019-06-20T00:27:46.555Z,18.60
2019-06-20T00:30:17.043Z,18.60
2019-06-20T00:32:47.014Z,18.50
2019-06-20T00:35:16.786Z,18.50
2019-06-20T00:37:46.815Z,18.50
2019-06-20T00:40:16.823Z,18.50
2019-06-20T00:42:46.747Z,18.40
2019-06-20T00:45:16.846Z,18.40
2019-06-20T00:47:46.894Z,18.40
2019-06-20T00:50:16.820Z,18.40
2019-06-20T00:52:46.728Z,18.40
2019-06-20T00:55:16.754Z,18.30
2019-06-20T00:57:46.540Z,18.30
2019-06-20T01:00:16.999Z,18.30
2019-06-20T01:02:46.919Z,18.20
2019-06-20T01:05:16.807Z,18.20
2019-06-20T01:07:46.815Z,18.20
2019-06-20T01:10:17.155Z,18.20
2019-06-20T01:12:47.055Z,18.10
2019-06-20T01:15:17.448Z,18.10
2019-06-20T01:17:47.192Z,18.10
2019-06-20T01:20:17.701Z,18.10
2019-06-20T01:22:47.626Z,18.10
2019-06-20T01:25:19.001Z,18.00
2019-06-20T01:27:48.785Z,18.00
2019-06-20T01:30:19.042Z,18.00
2019-06-20T01:32:48.927Z,17.90
2019-06-20T01:35:18.863Z,17.90
2019-06-20T01:37:48.649Z,17.90
2019-06-20T01:40:18.464Z,17.90
2019-06-20T01:42:48.286Z,17.80
2019-06-20T01:45:18.296Z,17.80
2019-06-20T01:47:48.111Z,17.80
2019-06-20T01:50:18.111Z,17.70
2019-06-20T01:52:48.031Z,17.70
2019-06-20T01:55:18.073Z,17.60
2019-06-20T01:57:47.844Z,17.60
2019-06-20T02:00:32.846Z,17.60
2019-06-20T02:03:02.647Z,17.50
2019-06-20T02:05:32.755Z,17.50
2019-06-20T02:08:02.703Z,17.50
2019-06-20T02:10:32.587Z,17.50
2019-06-20T02:13:02.516Z,17.50
2019-06-20T02:15:32.414Z,17.40
2019-06-20T02:18:02.445Z,17.40
2019-06-20T02:20:35.819Z,17.30
2019-06-20T02:23:06.022Z,17.30
2019-06-20T02:25:36.143Z,17.30
2019-06-20T02:28:06.077Z,17.20
2019-06-20T02:30:35.977Z,17.20
2019-06-20T02:33:05.999Z,17.20
2019-06-20T02:35:35.797Z,17.20
2019-06-20T02:38:06.014Z,17.20
2019-06-20T02:40:36.046Z,17.20
2019-06-20T02:43:06.502Z,17.10
2019-06-20T02:45:36.606Z,17.10
2019-06-20T02:48:07.107Z,17.10
2019-06-20T02:50:37.169Z,17.10
2019-06-20T02:53:07.139Z,17.10
2019-06-20T02:55:36.967Z,17.00
2019-06-20T02:58:06.799Z,17.00
2019-06-20T03:01:01.550Z,17.00
2019-06-20T03:03:31.511Z,17.00
2019-06-20T03:06:01.373Z,17.00
2019-06-20T03:08:31.433Z,16.90
2019-06-20T03:11:01.584Z,16.90
2019-06-20T03:13:31.336Z,16.90
2019-06-20T03:16:01.313Z,16.90
2019-06-20T03:18:31.111Z,16.90
2019-06-20T03:21:00.907Z,16.90
2019-06-20T03:23:30.682Z,16.90
2019-06-20T03:26:00.655Z,16.90
2019-06-20T03:28:30.512Z,16.80
2019-06-20T03:31:00.652Z,16.80
2019-06-20T03:33:30.609Z,16.80
2019-06-20T03:36:00.372Z,16.80
2019-06-20T03:38:30.130Z,16.80
2019-06-20T03:40:59.778Z,16.80
2019-06-20T03:43:29.614Z,16.70
2019-06-20T03:45:59.419Z,16.80
2019-06-20T03:48:29.239Z,16.70
2019-06-20T03:50:59.045Z,16.70
2019-06-20T03:53:29.051Z,16.70
2019-06-20T03:55:58.994Z,16.70
2019-06-20T03:58:28.615Z,16.70
2019-06-20T04:00:58.367Z,16.70
2019-06-20T04:03:28.112Z,16.60
2019-06-20T04:05:57.908Z,16.60
2019-06-20T04:08:27.708Z,16.60
2019-06-20T04:10:57.562Z,16.60
2019-06-20T04:13:27.559Z,16.60
2019-06-20T04:15:57.358Z,16.60
2019-06-20T04:18:27.212Z,16.60
2019-06-20T04:20:56.981Z,16.60
2019-06-20T04:23:26.898Z,16.60
2019-06-20T04:25:57.035Z,16.60
2019-06-20T04:28:26.911Z,16.60
2019-06-20T04:30:56.855Z,16.60
2019-06-20T04:33:26.697Z,16.60
2019-06-20T04:35:56.593Z,16.60
2019-06-20T04:38:26.387Z,16.60
2019-06-20T04:40:56.442Z,16.70
2019-06-20T04:43:26.302Z,16.70
2019-06-20T04:46:14.086Z,16.60
2019-06-20T04:48:44.068Z,16.70
2019-06-20T04:51:13.953Z,16.60
2019-06-20T04:53:43.799Z,16.60
2019-06-20T04:56:13.704Z,16.60
2019-06-20T04:58:43.524Z,16.60
2019-06-20T05:01:13.546Z,16.60
2019-06-20T05:03:43.339Z,16.60
2019-06-20T05:06:13.166Z,16.60
2019-06-20T05:08:43.019Z,16.60
2019-06-20T05:11:12.856Z,16.60
2019-06-20T05:13:42.803Z,16.60
2019-06-20T05:16:12.614Z,16.60
2019-06-20T05:18:42.650Z,16.60
2019-06-20T05:21:12.470Z,16.60
2019-06-20T05:23:42.263Z,16.60
2019-06-20T05:26:12.238Z,16.60
2019-06-20T05:28:42.082Z,16.60
2019-06-20T05:31:11.919Z,16.60
2019-06-20T05:33:41.696Z,16.60
2019-06-20T05:36:11.491Z,16.60
2019-06-20T05:38:41.468Z,16.70
2019-06-20T05:41:11.315Z,16.70
2019-06-20T05:43:41.156Z,16.70
2019-06-20T05:46:11.368Z,16.70
2019-06-20T05:48:41.259Z,16.70
2019-06-20T05:51:11.394Z,16.80
2019-06-20T05:53:41.349Z,16.80
2019-06-20T05:56:11.499Z,16.80
2019-06-20T05:58:41.455Z,16.80
2019-06-20T06:01:11.852Z,16.80
2019-06-20T06:03:41.955Z,16.90
2019-06-20T06:06:12.530Z,16.90
2019-06-20T06:08:42.349Z,16.90
2019-06-20T06:11:12.389Z,17.00
2019-06-20T06:13:42.276Z,17.00
2019-06-20T06:16:25.297Z,17.00
2019-06-20T06:18:43.679Z,17.00
2019-06-20T06:21:13.541Z,17.10
2019-06-20T06:23:43.384Z,17.00
2019-06-20T06:26:13.397Z,17.10
2019-06-20T06:28:46.758Z,17.10
2019-06-20T06:31:16.778Z,17.10
2019-06-20T06:33:49.297Z,17.20
2019-06-20T06:36:19.085Z,17.20
2019-06-20T06:38:48.925Z,17.20
2019-06-20T06:41:18.814Z,17.30
2019-06-20T06:43:48.668Z,17.30
2019-06-20T06:46:18.523Z,17.30
2019-06-20T06:48:48.655Z,17.40
2019-06-20T06:51:18.589Z,17.50
2019-06-20T06:53:48.495Z,17.50
2019-06-20T06:56:18.469Z,17.50
2019-06-20T06:58:48.416Z,17.60
2019-06-20T07:01:18.413Z,17.60
2019-06-20T07:03:48.435Z,17.70
2019-06-20T07:06:18.379Z,17.70
2019-06-20T07:08:48.175Z,17.80
2019-06-20T07:11:18.167Z,17.80
2019-06-20T07:13:48.118Z,17.80
2019-06-20T07:16:18.143Z,17.90
2019-06-20T07:18:48.047Z,17.90
2019-06-20T07:21:17.752Z,17.90
2019-06-20T07:23:47.641Z,18.00
2019-06-20T07:26:17.475Z,18.10
2019-06-20T07:28:47.319Z,18.10
2019-06-20T07:31:17.542Z,18.20
2019-06-20T07:33:47.648Z,18.20
2019-06-20T07:36:17.451Z,18.30
2019-06-20T07:38:47.231Z,18.30
2019-06-20T07:41:17.029Z,18.40
2019-06-20T07:43:46.881Z,18.40
2019-06-20T07:46:16.681Z,18.50
2019-06-20T07:48:46.575Z,18.50
2019-06-20T07:51:16.527Z,18.60
2019-06-20T07:53:46.297Z,18.60
2019-06-20T07:56:16.230Z,18.70
2019-06-20T07:58:46.289Z,18.80
2019-06-20T08:01:16.065Z,18.80
2019-06-20T08:03:45.902Z,18.90
2019-06-20T08:06:15.875Z,19.00
2019-06-20T08:08:45.791Z,19.10
2019-06-20T08:11:15.577Z,19.10
2019-06-20T08:13:45.636Z,19.20
2019-06-20T08:16:15.502Z,19.20
2019-06-20T08:18:45.557Z,19.30
2019-06-20T08:21:15.595Z,19.30
2019-06-20T08:23:45.668Z,19.40
2019-06-20T08:26:15.563Z,19.50
2019-06-20T08:28:45.637Z,19.50
2019-06-20T08:31:15.534Z,19.60
2019-06-20T08:33:45.558Z,19.70
2019-06-20T08:36:15.598Z,19.70
2019-06-20T08:38:45.525Z,19.80
2019-06-20T08:41:15.388Z,19.90
2019-06-20T08:43:45.461Z,19.90
2019-06-20T08:46:15.442Z,20.00
2019-06-20T08:48:45.386Z,20.10
2019-06-20T08:51:15.404Z,20.20
2019-06-20T08:53:45.180Z,20.20
2019-06-20T08:56:14.848Z,20.30
2019-06-20T08:58:44.716Z,20.40
2019-06-20T09:01:14.476Z,20.40
2019-06-20T09:03:44.620Z,20.50
2019-06-20T09:06:14.469Z,20.60
2019-06-20T09:08:44.143Z,20.70
2019-06-20T09:11:14.457Z,20.80
2019-06-20T09:13:44.397Z,20.90
2019-06-20T09:16:24.294Z,20.90
2019-06-20T09:18:45.877Z,21.00
2019-06-20T09:21:15.918Z,21.10
2019-06-20T09:23:45.669Z,21.20
2019-06-20T09:26:15.788Z,21.20
2019-06-20T09:28:45.649Z,21.20
2019-06-20T09:31:15.515Z,21.30
2019-06-20T09:33:45.467Z,21.30
2019-06-20T09:36:15.356Z,21.40
2019-06-20T09:38:45.161Z,21.50
2019-06-20T09:41:14.983Z,21.60
2019-06-20T09:43:44.790Z,21.70
2019-06-20T09:46:14.701Z,21.80
2019-06-20T09:48:44.530Z,21.80
2019-06-20T09:51:14.369Z,21.90
2019-06-20T09:53:44.172Z,22.00
2019-06-20T09:56:13.939Z,22.10
2019-06-20T09:58:43.687Z,22.20
2019-06-20T10:01:13.578Z,22.20
2019-06-20T10:03:43.519Z,22.20
2019-06-20T10:06:14.653Z,22.30
2019-06-20T10:08:46.587Z,22.30
2019-06-20T10:11:16.618Z,22.40
2019-06-20T10:13:48.112Z,22.50
2019-06-20T10:16:18.164Z,22.60
2019-06-20T10:18:48.477Z,22.60
2019-06-20T10:21:18.474Z,22.60
2019-06-20T10:23:49.610Z,22.60
2019-06-20T10:26:19.508Z,22.70
2019-06-20T10:28:49.339Z,22.80
2019-06-20T10:31:19.292Z,22.80
2019-06-20T10:33:50.846Z,22.80
2019-06-20T10:36:20.656Z,22.90
2019-06-20T10:38:50.467Z,23.00
2019-06-20T10:41:20.420Z,23.10
2019-06-20T10:43:50.190Z,23.10
2019-06-20T10:46:20.000Z,23.20
2019-06-20T10:48:50.098Z,23.30
2019-06-20T10:51:45.790Z,23.40
2019-06-20T10:54:15.899Z,23.50
2019-06-20T10:56:47.159Z,23.60
2019-06-20T10:59:16.998Z,23.60
2019-06-20T11:01:48.258Z,23.70
2019-06-20T11:04:18.144Z,23.80
2019-06-20T11:06:47.987Z,23.80
2019-06-20T11:09:18.051Z,23.90
2019-06-20T11:11:49.075Z,24.10
2019-06-20T11:14:20.780Z,24.10
2019-06-20T11:16:50.650Z,24.10
2019-06-20T11:19:20.412Z,24.10
2019-06-20T11:21:50.448Z,24.20
2019-06-20T11:24:20.248Z,24.30
2019-06-20T11:26:50.183Z,24.40
2019-06-20T11:29:20.103Z,24.40
2019-06-20T11:31:50.019Z,24.50
2019-06-20T11:34:20.040Z,24.60
2019-06-20T11:36:50.022Z,24.70
2019-06-20T11:39:20.078Z,24.80
2019-06-20T11:41:49.848Z,25.00
2019-06-20T11:44:19.655Z,25.00
2019-06-20T11:46:49.630Z,25.20
2019-06-20T11:49:19.509Z,25.20
2019-06-20T11:51:52.406Z,25.30
2019-06-20T11:54:22.301Z,25.40
2019-06-20T11:56:52.091Z,25.40
2019-06-20T11:59:21.904Z,25.40
2019-06-20T12:01:51.753Z,25.40
2019-06-20T12:04:21.541Z,25.50
2019-06-20T12:06:51.399Z,25.50
2019-06-20T12:09:21.306Z,25.50
2019-06-20T12:11:51.169Z,25.60
2019-06-20T12:14:21.115Z,25.60
2019-06-20T12:16:50.934Z,25.70
2019-06-20T12:19:20.692Z,25.70
2019-06-20T12:21:50.616Z,25.80
2019-06-20T12:24:20.535Z,25.80
2019-06-20T12:26:50.364Z,25.90
2019-06-20T12:29:20.259Z,25.90
2019-06-20T12:31:50.036Z,25.90
2019-06-20T12:34:19.767Z,26.00
2019-06-20T12:36:49.734Z,26.00
2019-06-20T12:39:19.726Z,26.00
2019-06-20T12:41:50.277Z,26.10
2019-06-20T12:44:20.281Z,26.20
2019-06-20T12:46:50.123Z,26.30
2019-06-20T12:49:19.887Z,26.40
2019-06-20T12:51:49.683Z,26.40
2019-06-20T12:54:19.635Z,26.50
2019-06-20T12:56:49.418Z,26.60
2019-06-20T12:59:19.218Z,26.60
2019-06-20T13:01:51.016Z,26.70
2019-06-20T13:04:21.251Z,26.70
2019-06-20T13:06:52.347Z,26.80
2019-06-20T13:09:22.303Z,26.80
2019-06-20T13:11:52.104Z,26.90
2019-06-20T13:14:22.008Z,26.90
2019-06-20T13:16:51.869Z,27.00
2019-06-20T13:19:21.752Z,26.90
2019-06-20T13:21:52.178Z,26.90
2019-06-20T13:24:22.080Z,26.90
2019-06-20T13:26:52.103Z,26.90
2019-06-20T13:29:21.869Z,26.90
2019-06-20T13:32:03.620Z,26.80
2019-06-20T13:34:23.050Z,26.80
2019-06-20T13:36:52.778Z,26.80
2019-06-20T13:39:22.587Z,26.80
2019-06-20T13:41:52.404Z,26.80
2019-06-20T13:44:22.243Z,26.70
2019-06-20T13:46:52.270Z,26.70
2019-06-20T13:49:22.008Z,26.60
2019-06-20T13:51:54.135Z,26.60
2019-06-20T13:54:24.038Z,26.60
2019-06-20T13:56:54.052Z,26.60
2019-06-20T13:59:23.646Z,26.60
2019-06-20T14:02:05.879Z,26.60
2019-06-20T14:04:24.626Z,26.60
2019-06-20T14:06:54.480Z,26.50
2019-06-20T14:09:24.544Z,26.50
2019-06-20T14:11:54.337Z,26.50
2019-06-20T14:14:25.241Z,26.50
2019-06-20T14:16:55.234Z,26.50
2019-06-20T14:19:25.003Z,26.50
2019-06-20T14:21:54.716Z,26.40
2019-06-20T14:24:24.700Z,26.30
2019-06-20T14:26:54.672Z,26.40
2019-06-20T14:29:24.365Z,26.40
2019-06-20T14:31:54.235Z,26.30
2019-06-20T14:34:24.200Z,26.40
2019-06-20T14:36:54.053Z,26.30
2019-06-20T14:39:24.103Z,26.30
2019-06-20T14:41:55.178Z,26.30
2019-06-20T14:44:25.479Z,26.30
2019-06-20T14:46:55.394Z,26.30
2019-06-20T14:49:25.329Z,26.30
2019-06-20T14:51:55.203Z,26.30
2019-06-20T14:54:25.159Z,26.30
2019-06-20T14:56:58.082Z,26.30
2019-06-20T14:59:26.654Z,26.30
2019-06-20T15:01:56.629Z,26.30
2019-06-20T15:04:26.578Z,26.20
2019-06-20T15:06:56.316Z,26.30
2019-06-20T15:09:26.366Z,26.20
2019-06-20T15:11:56.262Z,26.30
2019-06-20T15:14:26.035Z,26.30
2019-06-20T15:16:55.917Z,26.30
2019-06-20T15:19:25.890Z,26.20
2019-06-20T15:21:56.513Z,26.20
2019-06-20T15:24:26.935Z,26.20
2019-06-20T15:26:56.983Z,26.20
2019-06-20T15:29:26.775Z,26.20
2019-06-20T15:31:56.959Z,26.20
2019-06-20T15:34:27.053Z,26.20
2019-06-20T15:36:57.773Z,26.20
2019-06-20T15:39:27.917Z,26.20
2019-06-20T15:41:58.235Z,26.20
2019-06-20T15:44:28.212Z,26.20
2019-06-20T15:46:58.061Z,26.20
2019-06-20T15:49:27.987Z,26.20
2019-06-20T15:51:59.156Z,26.20
2019-06-20T15:54:29.244Z,26.20
2019-06-20T15:56:58.996Z,26.20
2019-06-20T15:59:28.824Z,26.20
2019-06-20T16:01:58.694Z,26.20
2019-06-20T16:04:28.437Z,26.20
2019-06-20T16:06:58.464Z,26.10
2019-06-20T16:09:28.277Z,26.10
2019-06-20T16:11:58.264Z,26.10
2019-06-20T16:14:27.955Z,26.10
2019-06-20T16:16:57.747Z,26.10
2019-06-20T16:19:27.514Z,26.10
2019-06-20T16:21:57.306Z,26.00
2019-06-20T16:24:27.099Z,26.00
2019-06-20T16:26:56.958Z,26.00
2019-06-20T16:29:26.756Z,26.00
2019-06-20T16:31:56.712Z,26.00
2019-06-20T16:34:26.484Z,25.90
2019-06-20T16:37:09.323Z,25.90
2019-06-20T16:39:27.768Z,25.90
2019-06-20T16:41:57.667Z,25.90
2019-06-20T16:44:27.604Z,25.80
2019-06-20T16:46:57.536Z,25.80
2019-06-20T16:49:27.381Z,25.70
2019-06-20T16:51:57.222Z,25.60
2019-06-20T16:54:27.385Z,25.50
2019-06-20T16:56:57.259Z,25.50
2019-06-20T16:59:27.085Z,25.50
2019-06-20T17:01:56.732Z,25.50
2019-06-20T17:04:26.609Z,25.40
2019-06-20T17:06:56.436Z,25.30
2019-06-20T17:09:26.357Z,25.20
2019-06-20T17:11:56.137Z,25.20
2019-06-20T17:14:25.920Z,25.10
2019-06-20T17:16:55.756Z,25.00
2019-06-20T17:19:25.571Z,25.00
2019-06-20T17:21:55.452Z,25.00
2019-06-20T17:24:25.336Z,24.90
2019-06-20T17:26:56.359Z,24.80
2019-06-20T17:29:26.151Z,24.80
2019-06-20T17:31:57.547Z,24.70
2019-06-20T17:34:27.400Z,24.60
2019-06-20T17:36:57.314Z,24.60
2019-06-20T17:39:27.147Z,24.60
2019-06-20T17:41:57.813Z,24.50
2019-06-20T17:44:27.717Z,24.40
2019-06-20T17:46:57.608Z,24.40
2019-06-20T17:49:27.391Z,24.30
2019-06-20T17:51:57.464Z,24.20
2019-06-20T17:54:27.348Z,24.20
2019-06-20T17:56:57.350Z,24.10
2019-06-20T17:59:27.179Z,24.00
2019-06-20T18:01:57.095Z,24.00
2019-06-20T18:04:27.029Z,23.90
2019-06-20T18:06:56.945Z,23.80
2019-06-20T18:09:26.823Z,23.80
2019-06-20T18:11:56.670Z,23.80
2019-06-20T18:14:26.579Z,23.70
2019-06-20T18:16:56.578Z,23.70
2019-06-20T18:19:26.350Z,23.60
2019-06-20T18:21:56.461Z,23.60
2019-06-20T18:24:26.300Z,23.50
2019-06-20T18:26:56.216Z,23.50
2019-06-20T18:29:26.050Z,23.40
2019-06-20T18:31:55.848Z,23.30
2019-06-20T18:34:30.134Z,23.30
2019-06-20T18:36:57.319Z,23.20
2019-06-20T18:39:27.208Z,23.20
2019-06-20T18:41:57.138Z,23.20
2019-06-20T18:44:27.219Z,23.10
2019-06-20T18:46:57.096Z,23.10
2019-06-20T18:49:26.988Z,23.10
2019-06-20T18:51:56.913Z,23.10
2019-06-20T18:54:26.791Z,23.00
2019-06-20T18:56:56.584Z,22.90
2019-06-20T18:59:26.572Z,22.90
2019-06-20T19:01:56.363Z,22.80
2019-06-20T19:04:26.116Z,22.70
2019-06-20T19:06:55.991Z,22.70
2019-06-20T19:09:26.012Z,22.70
2019-06-20T19:11:55.801Z,22.60
2019-06-20T19:14:25.634Z,22.50
2019-06-20T19:16:55.521Z,22.40
2019-06-20T19:19:25.450Z,22.40
2019-06-20T19:21:55.263Z,22.40
2019-06-20T19:24:25.137Z,22.30
2019-06-20T19:26:54.987Z,22.30
2019-06-20T19:29:24.824Z,22.20
2019-06-20T19:31:54.710Z,22.20
2019-06-20T19:34:24.499Z,22.10
2019-06-20T19:36:54.343Z,22.10
2019-06-20T19:39:24.126Z,22.10
2019-06-20T19:41:54.164Z,22.10
2019-06-20T19:44:23.970Z,22.00
2019-06-20T19:46:54.038Z,22.00
2019-06-20T19:49:23.740Z,21.90
2019-06-20T19:51:53.745Z,21.90
2019-06-20T19:54:23.718Z,21.90
2019-06-20T19:56:53.658Z,21.80
2019-06-20T19:59:23.761Z,21.80
2019-06-20T20:01:53.673Z,21.70
2019-06-20T20:04:23.654Z,21.60
2019-06-20T20:06:53.718Z,21.50
2019-06-20T20:09:23.735Z,21.50
2019-06-20T20:11:53.533Z,21.50
2019-06-20T20:14:23.593Z,21.40
2019-06-20T20:16:53.458Z,21.40
2019-06-20T20:19:23.255Z,21.40
2019-06-20T20:21:53.311Z,21.30
2019-06-20T20:24:23.059Z,21.30
2019-06-20T20:26:53.048Z,21.30
2019-06-20T20:29:23.097Z,21.20
2019-06-20T20:31:52.925Z,21.20
2019-06-20T20:34:22.547Z,21.10
2019-06-20T20:36:52.388Z,21.00
2019-06-20T20:39:22.173Z,21.00
2019-06-20T20:41:52.003Z,21.00
2019-06-20T20:44:22.039Z,20.90
2019-06-20T20:46:51.958Z,20.90
2019-06-20T20:49:21.969Z,20.80
2019-06-20T20:51:51.910Z,20.80
2019-06-20T20:54:21.894Z,20.70
2019-06-20T20:56:51.913Z,20.60
2019-06-20T20:59:21.800Z,20.60
2019-06-20T21:01:51.628Z,20.60
2019-06-20T21:04:21.391Z,20.50
2019-06-20T21:06:51.264Z,20.50
2019-06-20T21:09:21.155Z,20.50
2019-06-20T21:11:51.056Z,20.50
2019-06-20T21:14:21.004Z,20.50
2019-06-20T21:16:51.091Z,20.40
2019-06-20T21:19:20.858Z,20.40
2019-06-20T21:21:50.963Z,20.40
2019-06-20T21:24:20.805Z,20.40
2019-06-20T21:26:50.862Z,20.40
2019-06-20T21:29:20.900Z,20.30
2019-06-20T21:31:50.634Z,20.30
2019-06-20T21:34:20.737Z,20.30
2019-06-20T21:36:50.510Z,20.30
2019-06-20T21:39:20.327Z,20.30
2019-06-20T21:41:50.236Z,20.20
2019-06-20T21:44:20.185Z,20.20
2019-06-20T21:46:50.048Z,20.20
2019-06-20T21:49:19.874Z,20.10
2019-06-20T21:51:49.718Z,20.10
2019-06-20T21:54:19.583Z,20.10
2019-06-20T21:56:49.512Z,20.00
2019-06-20T21:59:19.418Z,20.00
2019-06-20T22:01:49.239Z,20.00
2019-06-20T22:04:19.134Z,20.00
2019-06-20T22:06:49.094Z,19.90
2019-06-20T22:09:18.994Z,19.90
2019-06-20T22:11:48.877Z,19.90
2019-06-20T22:14:18.845Z,19.90
2019-06-20T22:16:48.746Z,19.90
2019-06-20T22:19:18.621Z,19.80
2019-06-20T22:21:48.481Z,19.80
2019-06-20T22:24:18.319Z,19.70
2019-06-20T22:26:48.379Z,19.70
2019-06-20T22:29:18.429Z,19.70
2019-06-20T22:31:48.301Z,19.70
2019-06-20T22:34:18.211Z,19.60
2019-06-20T22:36:48.051Z,19.60
2019-06-20T22:39:17.847Z,19.60
2019-06-20T22:41:47.735Z,19.50
2019-06-20T22:44:17.610Z,19.50
2019-06-20T22:46:47.353Z,19.50
2019-06-20T22:49:17.088Z,19.50
2019-06-20T22:51:47.019Z,19.50
2019-06-20T22:54:16.914Z,19.50
2019-06-20T22:56:46.708Z,19.40
2019-06-20T22:59:16.439Z,19.40
2019-06-20T23:01:46.287Z,19.40
2019-06-20T23:04:16.135Z,19.40
2019-06-20T23:06:55.798Z,19.40
2019-06-20T23:09:17.408Z,19.30
2019-06-20T23:11:47.235Z,19.30
2019-06-20T23:14:17.368Z,19.30
2019-06-20T23:16:47.153Z,19.30
2019-06-20T23:19:16.903Z,19.30
2019-06-20T23:21:46.798Z,19.30
2019-06-20T23:24:16.574Z,19.30
2019-06-20T23:26:46.622Z,19.30
2019-06-20T23:29:25.330Z,19.20
2019-06-20T23:31:55.966Z,19.20
2019-06-20T23:34:25.791Z,19.20
2019-06-20T23:37:08.688Z,19.20
2019-06-20T23:39:28.463Z,19.20
2019-06-20T23:41:58.398Z,19.20
2019-06-20T23:44:28.077Z,19.20
2019-06-20T23:46:58.015Z,19.10
2019-06-20T23:49:27.820Z,19.10
2019-06-20T23:52:05.364Z,19.20
2019-06-20T23:54:35.123Z,19.10
2019-06-20T23:57:05.053Z,19.10
2019-06-20T23:59:34.839Z,19.10
